Aviation Digital Data Service (ADDS)

Output produced by METARs form (2224 UTC 23 July 2014)
found at http://aviationweather.gov/adds/metars/
 
KLAX 232051Z 2321/2424 27013KT P6SM FEW200 
     FM240200 26008KT P6SM SKC 
     FM240700 VRB03KT P6SM SKC 
     FM241200 VRB03KT P6SM SCT006 
     FM241700 26006KT P6SM SKC 
     FM242000 26012KT P6SM SKC